MMOX/OAX METAR and TAF weather

Enter ICAO airport designator
Station Type Date Time Source
MMOX METAR 2018/12/10 01:48 UTC NOAA

MMOX 100148Z 32007KT 7SM SCT210 17/09 A3029 RMK 8/006


Station Type Date Time Source
MMOX Decoded METAR 2018/12/10 01:48 UTC NOAA

Oaxaca / Xoxocotlan, Mexico (MMOX) 16-58N 096-44W
Dec 09, 2018 - 08:48 PM EST / 2018.12.10 0148 UTC
Wind: from the NW (320 degrees) at 8 MPH (7 KT):0
Visibility: 7 mile(s):0
Sky conditions: partly cloudy
Temperature: 62 F (17 C)
Dew Point: 48 F (9 C)
Relative Humidity: 59%
Pressure (altimeter): 30.29 in. Hg (1025 hPa)
ob: MMOX 100148Z 32007KT 7SM SCT210 17/09 A3029 RMK 8/006
cycle: 2

Station Type Date Time Source
MMOX TAF 2018/12/09 18:59 UTC NOAA

TAF COR MMOX 091752Z 0918/1018 34008KT P6SM OVC030
BECMG 0920/0921 02012KT BKN030 BKN080
FM100200 02005KT P6SM SCT030 BKN080
FM101200 02005KT 6SM HZ BKN020 BKN080


Example: see airport list